createdAt,value
2023-03-06T00:07:05.573Z,2.63
2023-03-06T00:17:05.786Z,2.27
2023-03-06T00:27:05.919Z,2.06
2023-03-06T00:37:06.142Z,2.06
2023-03-06T00:47:06.269Z,2.17
2023-03-06T00:57:06.467Z,2.19
2023-03-06T01:07:06.710Z,2.31
2023-03-06T01:17:06.912Z,2.52
2023-03-06T01:27:07.069Z,2.77
2023-03-06T01:37:07.345Z,2.74
2023-03-06T01:47:07.363Z,2.81
2023-03-06T01:57:07.560Z,2.76
2023-03-06T02:07:07.814Z,2.87
2023-03-06T02:17:08.057Z,2.84
2023-03-06T02:27:08.067Z,2.81
2023-03-06T02:37:08.268Z,2.81
2023-03-06T02:47:08.547Z,2.84
2023-03-06T02:57:08.612Z,2.82
2023-03-06T03:07:08.858Z,2.84
2023-03-06T03:17:09.069Z,2.79
2023-03-06T03:27:09.322Z,2.81
2023-03-06T03:37:09.405Z,2.76
2023-03-06T03:47:09.669Z,2.10
2023-03-06T03:57:09.848Z,1.91
2023-03-06T04:07:10.107Z,1.78
2023-03-06T04:17:10.255Z,1.72
2023-03-06T04:27:10.374Z,1.76
2023-03-06T04:37:10.580Z,1.78
2023-03-06T04:47:11.133Z,1.90
2023-03-06T04:57:10.991Z,1.94
2023-03-06T05:07:11.228Z,1.94
2023-03-06T05:17:11.358Z,1.90
2023-03-06T05:27:11.493Z,1.93
2023-03-06T05:37:11.688Z,1.99
2023-03-06T05:47:12.171Z,2.04
2023-03-06T05:57:12.022Z,2.06
2023-03-06T06:07:12.268Z,2.09
2023-03-06T06:17:12.547Z,2.15
2023-03-06T06:27:12.680Z,2.22
2023-03-06T06:37:12.875Z,2.34
2023-03-06T06:47:28.604Z,2.44
2023-03-06T06:57:14.394Z,2.52
2023-03-06T07:07:13.507Z,2.56
2023-03-06T07:17:13.728Z,2.63
2023-03-06T07:27:13.860Z,2.67
2023-03-06T07:37:14.050Z,2.84
2023-03-06T07:47:14.404Z,2.95
2023-03-06T07:57:14.460Z,3.15
2023-03-06T08:07:14.717Z,3.12
2023-03-06T08:17:14.916Z,3.18
2023-03-06T08:27:15.155Z,3.33
2023-03-06T08:37:15.383Z,3.40
2023-03-06T08:47:15.654Z,3.58
2023-03-06T08:57:15.890Z,3.68
2023-03-06T09:07:16.214Z,4.08
2023-03-06T09:17:16.149Z,4.70
2023-03-06T09:27:16.354Z,5.56
2023-03-06T09:37:17.425Z,5.48
2023-03-06T09:47:16.805Z,5.27
2023-03-06T09:57:16.760Z,4.80
2023-03-06T10:07:17.022Z,4.67
2023-03-06T10:17:17.119Z,4.65
2023-03-06T10:27:17.490Z,4.26
2023-03-06T10:37:17.477Z,4.58
2023-03-06T10:47:17.617Z,4.21
2023-03-06T10:57:17.795Z,4.14
2023-03-06T11:07:18.092Z,3.44
2023-03-06T11:17:18.203Z,2.98
2023-03-06T11:27:18.344Z,2.89
2023-03-06T11:37:18.501Z,2.71
2023-03-06T11:47:18.642Z,2.73
2023-03-06T11:57:18.823Z,3.88
2023-03-06T12:07:19.100Z,4.58
2023-03-06T12:17:19.189Z,4.91
2023-03-06T12:27:19.443Z,5.01
2023-03-06T12:37:19.578Z,5.64
2023-03-06T12:47:19.696Z,5.91
2023-03-06T12:57:19.897Z,6.00
2023-03-06T13:07:20.140Z,5.75
2023-03-06T13:17:20.345Z,6.16
2023-03-06T13:27:20.498Z,5.73
2023-03-06T13:37:20.962Z,5.43
2023-03-06T13:47:20.795Z,5.40
2023-03-06T13:57:21.164Z,5.71
2023-03-06T14:07:21.232Z,5.64
2023-03-06T14:17:21.413Z,5.20
2023-03-06T14:27:21.718Z,4.94
2023-03-06T14:37:22.030Z,4.47
2023-03-06T14:47:21.963Z,4.79
2023-03-06T14:57:22.233Z,5.34
2023-03-06T15:07:22.305Z,5.27
2023-03-06T15:17:22.465Z,5.30
2023-03-06T15:27:22.765Z,5.32
2023-03-06T15:37:22.728Z,5.27
2023-03-06T15:47:23.010Z,5.07
2023-03-06T15:57:23.106Z,4.88
2023-03-06T16:07:23.263Z,4.79
2023-03-06T16:17:23.365Z,4.64
2023-03-06T16:27:23.736Z,4.42
2023-03-06T16:37:23.713Z,4.40
2023-03-06T16:47:24.026Z,4.25
2023-03-06T16:57:24.330Z,4.19
2023-03-06T17:07:24.479Z,4.15
2023-03-06T17:17:24.574Z,4.03
2023-03-06T17:27:24.887Z,3.96
2023-03-06T17:37:24.794Z,3.80
2023-03-06T17:47:24.954Z,3.72
2023-03-06T17:57:25.174Z,3.68
2023-03-06T18:07:25.674Z,3.61
2023-03-06T18:17:25.647Z,3.54
2023-03-06T18:27:25.930Z,3.50
2023-03-06T18:37:25.875Z,3.50
2023-03-06T18:47:26.073Z,3.44
2023-03-06T18:57:27.771Z,3.43
2023-03-06T19:07:26.381Z,3.42
2023-03-06T19:17:26.737Z,3.40
2023-03-06T19:27:26.767Z,3.39
2023-03-06T19:37:26.905Z,3.30
2023-03-06T19:47:27.066Z,3.25
2023-03-06T19:57:27.361Z,3.20
2023-03-06T20:07:27.428Z,3.15
2023-03-06T20:17:27.521Z,3.13
2023-03-06T20:27:27.748Z,3.13
2023-03-06T20:37:27.968Z,3.12
2023-03-06T20:47:28.286Z,3.03
2023-03-06T20:57:28.231Z,3.00
2023-03-06T21:07:28.513Z,3.06
2023-03-06T21:17:28.620Z,3.09
2023-03-06T21:27:28.824Z,3.05
2023-03-06T21:37:28.915Z,3.07
2023-03-06T21:47:29.343Z,3.07
2023-03-06T21:57:29.323Z,3.10
2023-03-06T22:07:29.444Z,3.23
2023-03-06T22:17:29.848Z,3.18
2023-03-06T22:27:29.882Z,3.24
2023-03-06T22:37:30.093Z,3.31
2023-03-06T22:47:30.220Z,3.27
2023-03-06T22:57:30.426Z,3.23
2023-03-06T23:07:30.685Z,3.34
2023-03-06T23:17:30.883Z,3.30
2023-03-06T23:27:31.008Z,3.27
2023-03-06T23:37:31.206Z,3.39
2023-03-06T23:47:31.453Z,3.30
2023-03-06T23:57:31.648Z,3.31
